• Join FlightAware (Why Join?)
  • Login
  • US Flag 
07:36AM EDT


 

Airport Tracker/Info


-or-


 

Live Flight TrackerFlight Track Log ✈ KAP927 ✈ 28-Apr-2013 ✈ KOGS - KALB

Flight Track Log - Related Links

Times and Time Zones

All times are in EDT time to prevent confusion due to time zone crossing. See the KAP927 flight status page for this flight to view local times or setup timezone preferences in your user account.

Time Position Orientation Groundspeed Altitude Reporting Facility
EDT Latitude Longitude Course Direction KTS MPH feet Rate Location/Type
07:08AM 44.5203 -75.2761 148° Southeast 150 173 4,200  Level Boston Center
07:09AM 44.4894 -75.2514 150° Southeast 139 160 4,800 540 Climbing Boston Center
07:10AM 44.4589 -75.2294 153° Southeast 129 148 5,300 480 Climbing Boston Center
07:11AM 44.4239 -75.2047 153° Southeast 129 148 5,800 480 Climbing Boston Center
07:12AM 44.3994 -75.1803 144° Southeast 129 148 6,300 540 Climbing Boston Center
07:13AM 44.5222 -75.3231 149° Southeast  Level Estimated
07:13AM 44.3589 -75.1433 147° Southeast 134 154 6,900  Level Boston Center
07:14AM 44.4862 -75.2917 148° Southeast  Level FlightAware Approximate
07:14AM 44.3261 -75.1158 149° Southeast 140 161 7,400  Level Boston Center
07:15AM 44.2872 -75.0822 148° Southeast 140 161 7,500  Climbing Boston Center
07:16AM 44.2483 -75.0486 148° Southeast 157 181 7,500  Level Boston Center
07:17AM 44.2094 -75.0150 148° Southeast 163 188 7,500  Level Boston Center
07:18AM 44.1686 -74.9814 149° Southeast 168 193 7,500  Level Boston Center
07:19AM 44.1278 -74.9450 147° Southeast 168 193 7,500  Level Boston Center
07:20AM 44.0889 -74.9114 148° Southeast 168 193 7,500  Level Boston Center
07:21AM 44.0500 -74.8781 148° Southeast 168 193 7,500  Level Boston Center
07:22AM 44.0092 -74.8447 150° Southeast 168 193 7,500  Level Boston Center
07:23AM 43.9681 -74.8114 150° Southeast 168 193 7,500  Level Boston Center
07:24AM 43.9272 -74.7750 147° Southeast 168 193 7,500  Level Boston Center
07:25AM 43.8883 -74.7419 149° Southeast 168 193 7,500  Level Boston Center
07:26AM 43.8450 -74.7086 151° Southeast 168 193 7,500  Level Boston Center
07:27AM 43.8042 -74.6725 147° Southeast 168 193 7,500  Level Boston Center
07:28AM 43.7653 -74.6394 148° Southeast 168 193 7,500  Level Boston Center
07:29AM 43.7242 -74.6064 150° Southeast 173 199 7,500  Level Boston Center
07:30AM 43.6811 -74.5703 149° Southeast 173 199 7,500  Level Boston Center
07:31AM 43.6419 -74.5375 149° Southeast 173 199 7,500  Level Boston Center
07:32AM 43.5989 -74.5014 149° Southeast 173 199 7,500  Level Boston Center
07:33AM 43.5578 -74.4686 150° Southeast 178 205 7,500  Level Boston Center
07:34AM 43.5167 -74.4328 148° Southeast 178 205 7,500 60 Level Boston Center
07:35AM 43.4881 -74.4061 146° Southeast 174 200 7,600  Climbing Boston Center
07:35AM 43.4758 -74.3972 152° Southeast 178 205 7,500  Descending Boston Center
07:36AM 43.4447 -74.3733 151° Southeast 172 198 7,600  Climbing Boston Center
07:36AM 43.4367 -74.3644 141° Southeast 178 205 7,500  Descending Boston Center
07:37AM 43.4017 -74.3375 151° Southeast 172 198 7,600  Climbing Boston Center
07:37AM 43.3933 -74.3317 153° Southeast 178 205 7,500  Descending Boston Center
07:38AM 43.3583 -74.3047 151° Southeast 174 200 7,600 60 Climbing Boston Center
07:38AM 43.3483 -74.2931 140° Southeast 178 205 7,600  Level Boston Center
07:39AM 43.3194 -74.2694 149° Southeast 175 201 7,600 -120 Level Boston Center
07:40AM 43.2722 -74.2281 147° Southeast 179 206 7,400 -240 Descending Boston Center
07:41AM 43.2228 -74.1925 152° Southeast 186 214 7,100 -360 Descending Boston Center
07:42AM 43.1794 -74.1569 149° Southeast 188 216 6,700 -420 Descending Boston Center
07:43AM 43.1361 -74.1189 147° Southeast 189 217 6,300 -480 Descending Boston Center
07:44AM 43.0867 -74.0806 150° Southeast 187 215 5,800 -540 Descending Boston Center
07:45AM 43.0456 -74.0453 148° Southeast 183 211 5,200 -660 Descending Boston Center
07:46AM 42.9939 -74.0156 157° South 183 211 4,500 -600 Descending Boston Center
07:47AM 42.9503 -73.9944 160° South 183 211 4,000 -540 Descending Boston Center
07:48AM 42.9008 -73.9678 158° South 183 211 3,500 -480 Descending Boston Center
07:49AM 42.8636 -73.9497 160° South 183 211 3,100 -480 Descending Boston Center
07:50AM 42.8056 -73.9231 161° South 172 198 2,500 -480 Descending Boston Center
07:51AM 42.7619 -73.9022 161° South 165 190 2,200 -300 Descending Boston Center
07:52AM 42.7267 -73.8872 163° South 161 185 2,000 -360 Descending Boston Center
07:53AM 42.6897 -73.8581 150° Southeast 160 184 1,600 -480 Descending Boston Center
07:54AM 42.6964 -73.8072 80° East 147 169 1,100 -600 Descending Boston Center
07:55AM 42.7319 -73.8081 359° North 115 132 500 -600 Descending Boston Center
07:57AM 42.7333 -73.8000 160° South  Level FlightAware Approximate
08:04AM 42.7491 -73.8020 160° South  Level Estimated
08:05AM 42.7491 -73.8020 160° South  Level Estimated
08:06AM 42.7491 -73.8020 160° South  Level Estimated